sensor_id;sensor_type;location;lat;lon;timestamp;temperature;humidity
8188;DHT22;4135;49.184;9.722;2022-10-31T00:01:41;21.20;59.80
8188;DHT22;4135;49.184;9.722;2022-10-31T00:04:11;21.20;59.70
8188;DHT22;4135;49.184;9.722;2022-10-31T00:06:40;21.20;59.80
8188;DHT22;4135;49.184;9.722;2022-10-31T00:09:10;21.30;59.80
8188;DHT22;4135;49.184;9.722;2022-10-31T00:11:40;21.10;59.70
8188;DHT22;4135;49.184;9.722;2022-10-31T00:14:09;21.20;59.80
8188;DHT22;4135;49.184;9.722;2022-10-31T00:16:39;21.10;59.60
8188;DHT22;4135;49.184;9.722;2022-10-31T00:19:10;21.10;59.60
8188;DHT22;4135;49.184;9.722;2022-10-31T00:21:39;21.10;59.50
8188;DHT22;4135;49.184;9.722;2022-10-31T00:24:10;21.10;59.50
8188;DHT22;4135;49.184;9.722;2022-10-31T00:26:39;21.10;59.60
8188;DHT22;4135;49.184;9.722;2022-10-31T00:29:10;21.10;59.60
8188;DHT22;4135;49.184;9.722;2022-10-31T00:31:39;21.10;59.60
8188;DHT22;4135;49.184;9.722;2022-10-31T00:34:09;21.10;59.60
8188;DHT22;4135;49.184;9.722;2022-10-31T00:36:38;21.00;59.50
8188;DHT22;4135;49.184;9.722;2022-10-31T00:39:08;21.10;59.60
8188;DHT22;4135;49.184;9.722;2022-10-31T00:41:37;21.00;59.40
8188;DHT22;4135;49.184;9.722;2022-10-31T00:44:07;21.00;59.80
8188;DHT22;4135;49.184;9.722;2022-10-31T00:46:36;21.00;59.70
8188;DHT22;4135;49.184;9.722;2022-10-31T00:49:06;21.00;59.60
8188;DHT22;4135;49.184;9.722;2022-10-31T00:51:35;21.00;59.60
8188;DHT22;4135;49.184;9.722;2022-10-31T00:54:05;21.20;59.80
8188;DHT22;4135;49.184;9.722;2022-10-31T00:56:34;21.00;59.60
8188;DHT22;4135;49.184;9.722;2022-10-31T00:59:04;21.00;59.70
8188;DHT22;4135;49.184;9.722;2022-10-31T01:01:33;20.90;59.60
8188;DHT22;4135;49.184;9.722;2022-10-31T01:04:03;21.00;59.70
8188;DHT22;4135;49.184;9.722;2022-10-31T01:06:33;20.90;59.50
8188;DHT22;4135;49.184;9.722;2022-10-31T01:09:02;21.00;59.60
8188;DHT22;4135;49.184;9.722;2022-10-31T01:11:32;20.90;59.50
8188;DHT22;4135;49.184;9.722;2022-10-31T01:14:01;20.90;59.50
8188;DHT22;4135;49.184;9.722;2022-10-31T01:16:31;20.90;59.50
8188;DHT22;4135;49.184;9.722;2022-10-31T01:19:00;20.80;59.40
8188;DHT22;4135;49.184;9.722;2022-10-31T01:21:30;20.90;59.50
8188;DHT22;4135;49.184;9.722;2022-10-31T01:24:00;20.80;59.40
8188;DHT22;4135;49.184;9.722;2022-10-31T01:26:32;20.80;59.40
8188;DHT22;4135;49.184;9.722;2022-10-31T01:29:06;20.80;59.50
8188;DHT22;4135;49.184;9.722;2022-10-31T01:31:38;20.80;59.40
8188;DHT22;4135;49.184;9.722;2022-10-31T01:34:13;20.80;59.40
8188;DHT22;4135;49.184;9.722;2022-10-31T01:36:44;21.00;59.50
8188;DHT22;4135;49.184;9.722;2022-10-31T01:39:16;20.80;59.40
8188;DHT22;4135;49.184;9.722;2022-10-31T01:41:48;20.80;59.40
8188;DHT22;4135;49.184;9.722;2022-10-31T01:46:58;20.80;59.40
8188;DHT22;4135;49.184;9.722;2022-10-31T01:49:41;20.80;59.50
8188;DHT22;4135;49.184;9.722;2022-10-31T01:52:38;20.70;59.40
8188;DHT22;4135;49.184;9.722;2022-10-31T01:55:15;20.70;59.40
8188;DHT22;4135;49.184;9.722;2022-10-31T01:57:48;20.70;59.40
8188;DHT22;4135;49.184;9.722;2022-10-31T02:00:21;20.70;59.30
8188;DHT22;4135;49.184;9.722;2022-10-31T02:02:51;20.70;59.30
8188;DHT22;4135;49.184;9.722;2022-10-31T02:05:27;20.70;59.30
8188;DHT22;4135;49.184;9.722;2022-10-31T02:10:33;20.60;59.30
8188;DHT22;4135;49.184;9.722;2022-10-31T02:13:06;20.60;59.30
8188;DHT22;4135;49.184;9.722;2022-10-31T02:15:37;20.60;59.30
8188;DHT22;4135;49.184;9.722;2022-10-31T02:18:07;20.80;59.40
8188;DHT22;4135;49.184;9.722;2022-10-31T02:20:57;20.70;59.40
8188;DHT22;4135;49.184;9.722;2022-10-31T02:29:15;20.60;59.30
8188;DHT22;4135;49.184;9.722;2022-10-31T02:32:02;20.60;59.30
8188;DHT22;4135;49.184;9.722;2022-10-31T02:34:40;20.60;59.30
8188;DHT22;4135;49.184;9.722;2022-10-31T02:37:14;20.50;59.20
8188;DHT22;4135;49.184;9.722;2022-10-31T02:39:56;20.50;59.20
8188;DHT22;4135;49.184;9.722;2022-10-31T02:42:34;20.60;59.30
8188;DHT22;4135;49.184;9.722;2022-10-31T02:45:19;20.50;59.20
8188;DHT22;4135;49.184;9.722;2022-10-31T02:47:54;20.50;59.10
8188;DHT22;4135;49.184;9.722;2022-10-31T02:50:33;20.50;59.20
8188;DHT22;4135;49.184;9.722;2022-10-31T02:53:03;20.50;59.10
8188;DHT22;4135;49.184;9.722;2022-10-31T02:58:14;20.40;59.10
8188;DHT22;4135;49.184;9.722;2022-10-31T03:01:18;20.40;59.10
8188;DHT22;4135;49.184;9.722;2022-10-31T03:06:45;20.40;59.10
8188;DHT22;4135;49.184;9.722;2022-10-31T03:12:00;20.40;59.10
8188;DHT22;4135;49.184;9.722;2022-10-31T03:14:38;20.50;59.20
8188;DHT22;4135;49.184;9.722;2022-10-31T03:17:26;20.40;59.20
8188;DHT22;4135;49.184;9.722;2022-10-31T03:19:59;20.40;59.20
8188;DHT22;4135;49.184;9.722;2022-10-31T03:22:31;20.40;59.10
8188;DHT22;4135;49.184;9.722;2022-10-31T03:25:04;20.40;59.20
8188;DHT22;4135;49.184;9.722;2022-10-31T03:27:36;20.40;59.10
8188;DHT22;4135;49.184;9.722;2022-10-31T03:30:07;20.40;59.10
8188;DHT22;4135;49.184;9.722;2022-10-31T03:32:44;20.40;59.10
8188;DHT22;4135;49.184;9.722;2022-10-31T03:35:18;20.40;59.10
8188;DHT22;4135;49.184;9.722;2022-10-31T03:37:49;20.60;59.30
8188;DHT22;4135;49.184;9.722;2022-10-31T03:40:21;20.30;59.00
8188;DHT22;4135;49.184;9.722;2022-10-31T03:42:54;20.30;59.00
8188;DHT22;4135;49.184;9.722;2022-10-31T03:45:29;20.30;58.90
8188;DHT22;4135;49.184;9.722;2022-10-31T03:47:59;20.30;59.00
8188;DHT22;4135;49.184;9.722;2022-10-31T03:50:38;20.30;59.00
8188;DHT22;4135;49.184;9.722;2022-10-31T03:53:19;20.30;59.00
8188;DHT22;4135;49.184;9.722;2022-10-31T03:56:01;20.30;59.00
8188;DHT22;4135;49.184;9.722;2022-10-31T03:58:38;20.20;58.90
8188;DHT22;4135;49.184;9.722;2022-10-31T04:01:12;20.20;58.90
8188;DHT22;4135;49.184;9.722;2022-10-31T04:03:44;20.20;59.00
8188;DHT22;4135;49.184;9.722;2022-10-31T04:06:17;20.20;59.00
8188;DHT22;4135;49.184;9.722;2022-10-31T04:09:06;20.20;59.00
8188;DHT22;4135;49.184;9.722;2022-10-31T04:11:41;20.20;59.00
8188;DHT22;4135;49.184;9.722;2022-10-31T04:14:13;20.20;59.00
8188;DHT22;4135;49.184;9.722;2022-10-31T04:16:43;20.20;59.00
8188;DHT22;4135;49.184;9.722;2022-10-31T04:19:14;20.20;58.90
8188;DHT22;4135;49.184;9.722;2022-10-31T04:21:44;20.20;58.90
8188;DHT22;4135;49.184;9.722;2022-10-31T04:24:13;20.20;58.90
8188;DHT22;4135;49.184;9.722;2022-10-31T04:26:43;20.20;58.90
8188;DHT22;4135;49.184;9.722;2022-10-31T04:29:12;20.10;58.90
8188;DHT22;4135;49.184;9.722;2022-10-31T04:31:42;20.20;58.90
8188;DHT22;4135;49.184;9.722;2022-10-31T04:34:11;20.10;58.90
8188;DHT22;4135;49.184;9.722;2022-10-31T04:36:41;20.10;58.80
8188;DHT22;4135;49.184;9.722;2022-10-31T04:39:10;20.10;58.80
8188;DHT22;4135;49.184;9.722;2022-10-31T04:41:40;20.10;58.80
8188;DHT22;4135;49.184;9.722;2022-10-31T04:44:09;20.20;58.90
8188;DHT22;4135;49.184;9.722;2022-10-31T04:46:39;20.10;58.80
8188;DHT22;4135;49.184;9.722;2022-10-31T04:49:08;20.20;58.90
8188;DHT22;4135;49.184;9.722;2022-10-31T04:51:38;20.20;59.50
8188;DHT22;4135;49.184;9.722;2022-10-31T04:54:08;20.10;58.90
8188;DHT22;4135;49.184;9.722;2022-10-31T04:56:37;20.20;58.90
8188;DHT22;4135;49.184;9.722;2022-10-31T04:59:07;20.10;58.90
8188;DHT22;4135;49.184;9.722;2022-10-31T05:01:36;20.10;58.80
8188;DHT22;4135;49.184;9.722;2022-10-31T05:04:06;20.10;58.90
8188;DHT22;4135;49.184;9.722;2022-10-31T05:06:35;20.10;58.90
8188;DHT22;4135;49.184;9.722;2022-10-31T05:09:05;20.10;58.80
8188;DHT22;4135;49.184;9.722;2022-10-31T05:11:34;20.10;58.90
8188;DHT22;4135;49.184;9.722;2022-10-31T05:14:04;20.10;58.90
8188;DHT22;4135;49.184;9.722;2022-10-31T05:16:33;20.10;58.90
8188;DHT22;4135;49.184;9.722;2022-10-31T05:19:03;20.10;59.00
8188;DHT22;4135;49.184;9.722;2022-10-31T05:21:32;20.10;58.90
8188;DHT22;4135;49.184;9.722;2022-10-31T05:24:02;20.10;58.90
8188;DHT22;4135;49.184;9.722;2022-10-31T05:26:32;20.10;58.90
8188;DHT22;4135;49.184;9.722;2022-10-31T05:29:01;20.10;58.90
8188;DHT22;4135;49.184;9.722;2022-10-31T05:31:31;20.10;58.90
8188;DHT22;4135;49.184;9.722;2022-10-31T05:34:00;20.10;58.80
8188;DHT22;4135;49.184;9.722;2022-10-31T05:36:30;20.10;58.70
8188;DHT22;4135;49.184;9.722;2022-10-31T05:38:59;20.10;58.70
8188;DHT22;4135;49.184;9.722;2022-10-31T05:41:29;20.10;58.80
8188;DHT22;4135;49.184;9.722;2022-10-31T05:43:58;20.10;58.70
8188;DHT22;4135;49.184;9.722;2022-10-31T05:46:28;20.10;58.70
8188;DHT22;4135;49.184;9.722;2022-10-31T05:48:57;20.00;58.60
8188;DHT22;4135;49.184;9.722;2022-10-31T05:51:27;20.00;58.60
8188;DHT22;4135;49.184;9.722;2022-10-31T05:53:56;20.00;58.50
8188;DHT22;4135;49.184;9.722;2022-10-31T05:56:25;20.00;58.60
8188;DHT22;4135;49.184;9.722;2022-10-31T05:58:55;20.00;58.60
8188;DHT22;4135;49.184;9.722;2022-10-31T06:01:25;20.00;58.60
8188;DHT22;4135;49.184;9.722;2022-10-31T06:03:54;20.00;58.60
8188;DHT22;4135;49.184;9.722;2022-10-31T06:06:24;20.00;58.60
8188;DHT22;4135;49.184;9.722;2022-10-31T06:08:53;20.00;58.60
8188;DHT22;4135;49.184;9.722;2022-10-31T06:11:23;20.00;58.60
8188;DHT22;4135;49.184;9.722;2022-10-31T06:13:52;20.00;58.50
8188;DHT22;4135;49.184;9.722;2022-10-31T06:16:22;20.00;58.60
8188;DHT22;4135;49.184;9.722;2022-10-31T06:18:51;20.00;58.60
8188;DHT22;4135;49.184;9.722;2022-10-31T06:21:21;20.00;58.60
8188;DHT22;4135;49.184;9.722;2022-10-31T06:23:50;20.00;58.60
8188;DHT22;4135;49.184;9.722;2022-10-31T06:26:20;20.00;58.60
8188;DHT22;4135;49.184;9.722;2022-10-31T06:28:49;20.00;58.60
8188;DHT22;4135;49.184;9.722;2022-10-31T06:31:19;20.00;58.70
8188;DHT22;4135;49.184;9.722;2022-10-31T06:33:48;20.00;58.70
8188;DHT22;4135;49.184;9.722;2022-10-31T06:36:18;20.00;58.70
8188;DHT22;4135;49.184;9.722;2022-10-31T06:38:47;20.00;58.70
8188;DHT22;4135;49.184;9.722;2022-10-31T06:41:17;20.00;58.70
8188;DHT22;4135;49.184;9.722;2022-10-31T06:43:47;20.00;58.70
8188;DHT22;4135;49.184;9.722;2022-10-31T06:46:16;20.00;58.70
8188;DHT22;4135;49.184;9.722;2022-10-31T06:48:46;20.00;58.70
8188;DHT22;4135;49.184;9.722;2022-10-31T06:51:15;20.00;58.60
8188;DHT22;4135;49.184;9.722;2022-10-31T06:53:45;20.00;58.60
8188;DHT22;4135;49.184;9.722;2022-10-31T06:56:14;20.00;58.50
8188;DHT22;4135;49.184;9.722;2022-10-31T06:58:44;20.00;58.40
8188;DHT22;4135;49.184;9.722;2022-10-31T07:01:13;20.00;58.30
8188;DHT22;4135;49.184;9.722;2022-10-31T07:03:43;20.00;58.20
8188;DHT22;4135;49.184;9.722;2022-10-31T07:06:12;20.10;58.20
8188;DHT22;4135;49.184;9.722;2022-10-31T07:08:42;20.10;58.20
8188;DHT22;4135;49.184;9.722;2022-10-31T07:11:11;20.10;58.20
8188;DHT22;4135;49.184;9.722;2022-10-31T07:13:41;20.10;58.10
8188;DHT22;4135;49.184;9.722;2022-10-31T07:16:10;20.20;58.10
8188;DHT22;4135;49.184;9.722;2022-10-31T07:18:42;20.30;58.00
8188;DHT22;4135;49.184;9.722;2022-10-31T07:21:11;20.50;57.90
8188;DHT22;4135;49.184;9.722;2022-10-31T07:23:41;21.00;57.40
8188;DHT22;4135;49.184;9.722;2022-10-31T07:26:10;21.40;56.40
8188;DHT22;4135;49.184;9.722;2022-10-31T07:28:40;21.70;55.80
8188;DHT22;4135;49.184;9.722;2022-10-31T07:31:09;22.00;55.40
8188;DHT22;4135;49.184;9.722;2022-10-31T07:33:39;22.10;55.30
8188;DHT22;4135;49.184;9.722;2022-10-31T07:36:08;22.20;55.30
8188;DHT22;4135;49.184;9.722;2022-10-31T07:38:38;22.20;55.20
8188;DHT22;4135;49.184;9.722;2022-10-31T07:41:07;21.60;55.50
8188;DHT22;4135;49.184;9.722;2022-10-31T07:43:37;21.10;56.40
8188;DHT22;4135;49.184;9.722;2022-10-31T07:46:07;20.90;57.00
8188;DHT22;4135;49.184;9.722;2022-10-31T07:48:37;20.80;57.80
8188;DHT22;4135;49.184;9.722;2022-10-31T07:51:06;20.70;60.40
8188;DHT22;4135;49.184;9.722;2022-10-31T07:53:36;20.70;60.80
8188;DHT22;4135;49.184;9.722;2022-10-31T07:56:05;20.60;61.00
8188;DHT22;4135;49.184;9.722;2022-10-31T07:58:35;20.50;61.10
8188;DHT22;4135;49.184;9.722;2022-10-31T08:01:05;20.50;61.30
8188;DHT22;4135;49.184;9.722;2022-10-31T08:03:34;20.50;61.30
8188;DHT22;4135;49.184;9.722;2022-10-31T08:06:04;20.50;61.50
8188;DHT22;4135;49.184;9.722;2022-10-31T08:08:33;20.40;61.40
8188;DHT22;4135;49.184;9.722;2022-10-31T08:11:03;20.40;61.50
8188;DHT22;4135;49.184;9.722;2022-10-31T08:13:32;20.40;61.60
8188;DHT22;4135;49.184;9.722;2022-10-31T08:16:02;20.40;61.70
8188;DHT22;4135;49.184;9.722;2022-10-31T08:18:33;20.40;61.80
8188;DHT22;4135;49.184;9.722;2022-10-31T08:21:03;20.40;61.80
8188;DHT22;4135;49.184;9.722;2022-10-31T08:23:32;20.40;61.90
8188;DHT22;4135;49.184;9.722;2022-10-31T08:26:02;20.40;61.90
8188;DHT22;4135;49.184;9.722;2022-10-31T08:28:32;20.40;62.10
8188;DHT22;4135;49.184;9.722;2022-10-31T08:31:01;20.40;62.30
8188;DHT22;4135;49.184;9.722;2022-10-31T08:33:31;20.40;62.30
8188;DHT22;4135;49.184;9.722;2022-10-31T08:36:00;20.40;62.30
8188;DHT22;4135;49.184;9.722;2022-10-31T08:38:30;20.40;62.30
8188;DHT22;4135;49.184;9.722;2022-10-31T08:40:59;20.40;62.30
8188;DHT22;4135;49.184;9.722;2022-10-31T08:43:29;20.40;62.30
8188;DHT22;4135;49.184;9.722;2022-10-31T08:45:58;20.40;62.20
8188;DHT22;4135;49.184;9.722;2022-10-31T08:48:28;20.40;62.30
8188;DHT22;4135;49.184;9.722;2022-10-31T08:50:59;20.40;62.40
8188;DHT22;4135;49.184;9.722;2022-10-31T08:53:29;20.40;62.50
8188;DHT22;4135;49.184;9.722;2022-10-31T08:55:58;20.40;62.50
8188;DHT22;4135;49.184;9.722;2022-10-31T08:58:28;20.40;62.60
8188;DHT22;4135;49.184;9.722;2022-10-31T09:00:59;20.40;62.70
8188;DHT22;4135;49.184;9.722;2022-10-31T09:03:30;20.50;63.00
8188;DHT22;4135;49.184;9.722;2022-10-31T09:06:02;20.40;62.90
8188;DHT22;4135;49.184;9.722;2022-10-31T09:08:32;20.40;63.00
8188;DHT22;4135;49.184;9.722;2022-10-31T09:11:02;20.40;63.00
8188;DHT22;4135;49.184;9.722;2022-10-31T09:13:32;20.50;63.20
8188;DHT22;4135;49.184;9.722;2022-10-31T09:16:02;20.50;63.30
8188;DHT22;4135;49.184;9.722;2022-10-31T09:18:32;20.50;63.40
8188;DHT22;4135;49.184;9.722;2022-10-31T09:21:01;20.40;63.40
8188;DHT22;4135;49.184;9.722;2022-10-31T09:23:31;20.50;63.60
8188;DHT22;4135;49.184;9.722;2022-10-31T09:26:02;20.50;63.70
8188;DHT22;4135;49.184;9.722;2022-10-31T09:28:32;20.50;63.70
8188;DHT22;4135;49.184;9.722;2022-10-31T09:31:02;20.50;63.80
8188;DHT22;4135;49.184;9.722;2022-10-31T09:33:31;20.50;63.70
8188;DHT22;4135;49.184;9.722;2022-10-31T09:36:01;20.50;63.80
8188;DHT22;4135;49.184;9.722;2022-10-31T09:38:30;20.50;63.90
8188;DHT22;4135;49.184;9.722;2022-10-31T09:44:11;20.50;64.20
8188;DHT22;4135;49.184;9.722;2022-10-31T09:46:58;20.50;64.30
8188;DHT22;4135;49.184;9.722;2022-10-31T09:52:24;20.50;64.90
8188;DHT22;4135;49.184;9.722;2022-10-31T09:55:16;20.50;65.10
8188;DHT22;4135;49.184;9.722;2022-10-31T09:57:47;20.50;65.20
8188;DHT22;4135;49.184;9.722;2022-10-31T10:00:20;20.60;65.20
8188;DHT22;4135;49.184;9.722;2022-10-31T10:03:07;20.60;65.40
8188;DHT22;4135;49.184;9.722;2022-10-31T10:05:45;20.60;65.50
8188;DHT22;4135;49.184;9.722;2022-10-31T10:08:20;20.60;65.50
8188;DHT22;4135;49.184;9.722;2022-10-31T10:16:57;20.60;66.20
8188;DHT22;4135;49.184;9.722;2022-10-31T10:19:39;20.60;65.40
8188;DHT22;4135;49.184;9.722;2022-10-31T10:22:27;20.70;65.10
8188;DHT22;4135;49.184;9.722;2022-10-31T10:33:15;20.70;64.60
8188;DHT22;4135;49.184;9.722;2022-10-31T10:35:49;20.70;64.50
8188;DHT22;4135;49.184;9.722;2022-10-31T10:38:40;20.70;64.50
8188;DHT22;4135;49.184;9.722;2022-10-31T10:41:17;20.70;64.60
8188;DHT22;4135;49.184;9.722;2022-10-31T10:43:51;20.80;64.60
8188;DHT22;4135;49.184;9.722;2022-10-31T10:46:48;20.80;64.50
8188;DHT22;4135;49.184;9.722;2022-10-31T10:49:48;20.80;64.50
8188;DHT22;4135;49.184;9.722;2022-10-31T10:52:50;20.80;64.60
8188;DHT22;4135;49.184;9.722;2022-10-31T10:58:30;20.80;64.40
8188;DHT22;4135;49.184;9.722;2022-10-31T11:01:00;20.80;64.40
8188;DHT22;4135;49.184;9.722;2022-10-31T11:03:30;20.80;64.40
8188;DHT22;4135;49.184;9.722;2022-10-31T11:06:04;20.90;64.60
8188;DHT22;4135;49.184;9.722;2022-10-31T11:08:35;20.90;65.10
8188;DHT22;4135;49.184;9.722;2022-10-31T11:13:49;20.90;66.00
8188;DHT22;4135;49.184;9.722;2022-10-31T11:16:37;20.90;66.10
8188;DHT22;4135;49.184;9.722;2022-10-31T11:19:20;20.90;66.10
8188;DHT22;4135;49.184;9.722;2022-10-31T11:21:50;21.00;66.20
8188;DHT22;4135;49.184;9.722;2022-10-31T11:24:25;21.00;66.40
8188;DHT22;4135;49.184;9.722;2022-10-31T11:27:25;21.00;66.50
8188;DHT22;4135;49.184;9.722;2022-10-31T11:30:04;21.00;66.50
8188;DHT22;4135;49.184;9.722;2022-10-31T11:32:35;21.00;66.40
8188;DHT22;4135;49.184;9.722;2022-10-31T11:35:10;21.10;67.00
8188;DHT22;4135;49.184;9.722;2022-10-31T11:37:43;21.10;67.00
8188;DHT22;4135;49.184;9.722;2022-10-31T11:40:22;21.10;67.10
8188;DHT22;4135;49.184;9.722;2022-10-31T11:42:55;21.10;67.10
8188;DHT22;4135;49.184;9.722;2022-10-31T11:45:32;21.10;66.80
8188;DHT22;4135;49.184;9.722;2022-10-31T11:48:18;21.10;66.90
8188;DHT22;4135;49.184;9.722;2022-10-31T11:50:56;21.10;67.00
8188;DHT22;4135;49.184;9.722;2022-10-31T11:53:28;21.10;67.30
8188;DHT22;4135;49.184;9.722;2022-10-31T11:56:13;21.10;67.40
8188;DHT22;4135;49.184;9.722;2022-10-31T11:58:43;21.10;67.30
8188;DHT22;4135;49.184;9.722;2022-10-31T12:01:27;21.10;67.40
8188;DHT22;4135;49.184;9.722;2022-10-31T12:04:08;21.10;67.20
8188;DHT22;4135;49.184;9.722;2022-10-31T12:06:40;21.10;67.30
8188;DHT22;4135;49.184;9.722;2022-10-31T12:20:19;21.10;66.90
8188;DHT22;4135;49.184;9.722;2022-10-31T12:25:59;21.10;66.90
8188;DHT22;4135;49.184;9.722;2022-10-31T12:29:07;21.10;67.00
8188;DHT22;4135;49.184;9.722;2022-10-31T12:37:29;21.20;67.00
8188;DHT22;4135;49.184;9.722;2022-10-31T12:42:54;21.10;67.30
8188;DHT22;4135;49.184;9.722;2022-10-31T12:48:40;21.10;67.30
8188;DHT22;4135;49.184;9.722;2022-10-31T12:54:25;21.10;67.50
8188;DHT22;4135;49.184;9.722;2022-10-31T13:00:22;21.20;67.10
8188;DHT22;4135;49.184;9.722;2022-10-31T13:03:09;21.20;67.30
8188;DHT22;4135;49.184;9.722;2022-10-31T13:05:46;21.20;67.40
8188;DHT22;4135;49.184;9.722;2022-10-31T13:08:22;21.20;67.20
8188;DHT22;4135;49.184;9.722;2022-10-31T13:11:09;21.30;67.30
8188;DHT22;4135;49.184;9.722;2022-10-31T13:14:05;21.20;67.10
8188;DHT22;4135;49.184;9.722;2022-10-31T13:16:42;21.20;67.40
8188;DHT22;4135;49.184;9.722;2022-10-31T13:19:17;21.20;67.60
8188;DHT22;4135;49.184;9.722;2022-10-31T13:22:12;21.20;67.70
8188;DHT22;4135;49.184;9.722;2022-10-31T13:27:22;21.20;67.70
8188;DHT22;4135;49.184;9.722;2022-10-31T13:30:20;21.20;67.90
8188;DHT22;4135;49.184;9.722;2022-10-31T13:38:52;21.20;68.10
8188;DHT22;4135;49.184;9.722;2022-10-31T13:41:49;21.10;68.30
8188;DHT22;4135;49.184;9.722;2022-10-31T13:44:22;21.10;68.20
8188;DHT22;4135;49.184;9.722;2022-10-31T13:46:55;21.10;68.20
8188;DHT22;4135;49.184;9.722;2022-10-31T13:54:41;21.10;68.20
8188;DHT22;4135;49.184;9.722;2022-10-31T14:02:51;21.10;68.40
8188;DHT22;4135;49.184;9.722;2022-10-31T14:05:22;21.10;68.50
8188;DHT22;4135;49.184;9.722;2022-10-31T14:07:54;21.10;68.60
8188;DHT22;4135;49.184;9.722;2022-10-31T14:10:28;21.10;68.80
8188;DHT22;4135;49.184;9.722;2022-10-31T14:13:18;21.10;68.70
8188;DHT22;4135;49.184;9.722;2022-10-31T14:15:55;21.10;68.80
8188;DHT22;4135;49.184;9.722;2022-10-31T14:18:31;21.10;68.90
8188;DHT22;4135;49.184;9.722;2022-10-31T14:21:01;21.10;68.90
8188;DHT22;4135;49.184;9.722;2022-10-31T14:23:44;21.10;68.90
8188;DHT22;4135;49.184;9.722;2022-10-31T14:29:00;21.10;68.80
8188;DHT22;4135;49.184;9.722;2022-10-31T14:31:36;21.10;68.70
8188;DHT22;4135;49.184;9.722;2022-10-31T14:34:30;21.10;69.00
8188;DHT22;4135;49.184;9.722;2022-10-31T14:40:21;21.10;68.80
8188;DHT22;4135;49.184;9.722;2022-10-31T14:50:52;21.20;68.50
8188;DHT22;4135;49.184;9.722;2022-10-31T14:53:34;21.10;68.40
8188;DHT22;4135;49.184;9.722;2022-10-31T14:56:09;21.10;68.50
8188;DHT22;4135;49.184;9.722;2022-10-31T14:58:47;21.10;68.40
8188;DHT22;4135;49.184;9.722;2022-10-31T15:01:28;21.10;68.60
8188;DHT22;4135;49.184;9.722;2022-10-31T15:04:03;21.10;68.50
8188;DHT22;4135;49.184;9.722;2022-10-31T15:06:46;21.10;68.60
8188;DHT22;4135;49.184;9.722;2022-10-31T15:09:28;21.10;68.50
8188;DHT22;4135;49.184;9.722;2022-10-31T15:11:59;21.10;68.60
8188;DHT22;4135;49.184;9.722;2022-10-31T15:14:31;21.10;68.90
8188;DHT22;4135;49.184;9.722;2022-10-31T15:17:02;21.10;68.90
8188;DHT22;4135;49.184;9.722;2022-10-31T15:19:33;21.10;68.90
8188;DHT22;4135;49.184;9.722;2022-10-31T15:22:03;22.40;70.10
8188;DHT22;4135;49.184;9.722;2022-10-31T15:24:38;21.10;68.80
8188;DHT22;4135;49.184;9.722;2022-10-31T15:27:17;21.00;68.50
8188;DHT22;4135;49.184;9.722;2022-10-31T15:29:54;21.00;68.40
8188;DHT22;4135;49.184;9.722;2022-10-31T15:32:27;21.10;68.50
8188;DHT22;4135;49.184;9.722;2022-10-31T15:34:57;21.10;68.50
8188;DHT22;4135;49.184;9.722;2022-10-31T15:37:27;21.10;68.40
8188;DHT22;4135;49.184;9.722;2022-10-31T15:40:07;21.10;68.40
8188;DHT22;4135;49.184;9.722;2022-10-31T15:42:40;21.10;68.60
8188;DHT22;4135;49.184;9.722;2022-10-31T15:48:03;21.10;68.60
8188;DHT22;4135;49.184;9.722;2022-10-31T15:50:48;21.00;68.60
8188;DHT22;4135;49.184;9.722;2022-10-31T15:56:06;21.00;68.50
8188;DHT22;4135;49.184;9.722;2022-10-31T15:58:43;21.00;68.60
8188;DHT22;4135;49.184;9.722;2022-10-31T16:01:28;21.00;68.50
8188;DHT22;4135;49.184;9.722;2022-10-31T16:06:33;21.00;68.40
8188;DHT22;4135;49.184;9.722;2022-10-31T16:09:18;21.00;68.50
8188;DHT22;4135;49.184;9.722;2022-10-31T16:11:50;21.00;68.50
8188;DHT22;4135;49.184;9.722;2022-10-31T16:14:23;20.90;68.50
8188;DHT22;4135;49.184;9.722;2022-10-31T16:16:56;21.00;68.60
8188;DHT22;4135;49.184;9.722;2022-10-31T16:19:35;21.00;68.50
8188;DHT22;4135;49.184;9.722;2022-10-31T16:22:09;21.00;68.50
8188;DHT22;4135;49.184;9.722;2022-10-31T16:27:36;20.90;68.30
8188;DHT22;4135;49.184;9.722;2022-10-31T16:30:30;20.90;68.40
8188;DHT22;4135;49.184;9.722;2022-10-31T16:33:05;21.00;68.50
8188;DHT22;4135;49.184;9.722;2022-10-31T16:35:49;20.90;68.40
8188;DHT22;4135;49.184;9.722;2022-10-31T16:38:18;20.90;68.40
8188;DHT22;4135;49.184;9.722;2022-10-31T16:40:49;20.90;68.30
8188;DHT22;4135;49.184;9.722;2022-10-31T16:43:20;20.90;68.20
8188;DHT22;4135;49.184;9.722;2022-10-31T16:45:52;20.90;68.20
8188;DHT22;4135;49.184;9.722;2022-10-31T16:48:22;20.90;68.20
8188;DHT22;4135;49.184;9.722;2022-10-31T16:50:52;20.90;68.20
8188;DHT22;4135;49.184;9.722;2022-10-31T16:53:22;20.90;68.20
8188;DHT22;4135;49.184;9.722;2022-10-31T16:55:57;20.90;68.20
8188;DHT22;4135;49.184;9.722;2022-10-31T16:58:29;20.90;68.10
8188;DHT22;4135;49.184;9.722;2022-10-31T17:01:00;20.90;68.10
8188;DHT22;4135;49.184;9.722;2022-10-31T17:03:30;20.90;68.10
8188;DHT22;4135;49.184;9.722;2022-10-31T17:05:59;20.90;68.10
8188;DHT22;4135;49.184;9.722;2022-10-31T17:08:29;20.90;68.00
8188;DHT22;4135;49.184;9.722;2022-10-31T17:10:59;20.90;68.00
8188;DHT22;4135;49.184;9.722;2022-10-31T17:13:30;20.90;68.10
8188;DHT22;4135;49.184;9.722;2022-10-31T17:16:01;20.80;68.00
8188;DHT22;4135;49.184;9.722;2022-10-31T17:18:31;20.90;68.00
8188;DHT22;4135;49.184;9.722;2022-10-31T17:21:02;20.90;68.10
8188;DHT22;4135;49.184;9.722;2022-10-31T17:23:32;20.80;68.10
8188;DHT22;4135;49.184;9.722;2022-10-31T17:26:02;20.80;68.10
8188;DHT22;4135;49.184;9.722;2022-10-31T17:28:31;20.80;68.00
8188;DHT22;4135;49.184;9.722;2022-10-31T17:31:01;20.80;67.90
8188;DHT22;4135;49.184;9.722;2022-10-31T17:33:30;20.80;67.90
8188;DHT22;4135;49.184;9.722;2022-10-31T17:36:02;20.80;68.00
8188;DHT22;4135;49.184;9.722;2022-10-31T17:38:31;20.80;67.90
8188;DHT22;4135;49.184;9.722;2022-10-31T17:41:04;20.80;68.00
8188;DHT22;4135;49.184;9.722;2022-10-31T17:43:34;20.80;68.10
8188;DHT22;4135;49.184;9.722;2022-10-31T17:46:05;20.80;68.10
8188;DHT22;4135;49.184;9.722;2022-10-31T17:48:35;20.70;68.00
8188;DHT22;4135;49.184;9.722;2022-10-31T17:51:06;20.70;68.10
8188;DHT22;4135;49.184;9.722;2022-10-31T17:53:35;20.70;68.10
8188;DHT22;4135;49.184;9.722;2022-10-31T17:56:07;20.70;68.20
8188;DHT22;4135;49.184;9.722;2022-10-31T17:58:37;20.70;68.20
8188;DHT22;4135;49.184;9.722;2022-10-31T18:01:09;20.70;68.20
8188;DHT22;4135;49.184;9.722;2022-10-31T18:03:39;20.70;68.20
8188;DHT22;4135;49.184;9.722;2022-10-31T18:06:10;20.70;68.20
8188;DHT22;4135;49.184;9.722;2022-10-31T18:08:40;20.70;68.20
8188;DHT22;4135;49.184;9.722;2022-10-31T18:11:15;20.70;68.20
8188;DHT22;4135;49.184;9.722;2022-10-31T18:13:45;20.70;68.20
8188;DHT22;4135;49.184;9.722;2022-10-31T18:16:16;20.60;68.10
8188;DHT22;4135;49.184;9.722;2022-10-31T18:18:56;20.60;68.20
8188;DHT22;4135;49.184;9.722;2022-10-31T18:21:28;20.60;68.20
8188;DHT22;4135;49.184;9.722;2022-10-31T18:23:59;20.60;68.20
8188;DHT22;4135;49.184;9.722;2022-10-31T18:26:28;20.60;68.30
8188;DHT22;4135;49.184;9.722;2022-10-31T18:28:58;20.60;68.40
8188;DHT22;4135;49.184;9.722;2022-10-31T18:31:28;20.60;68.50
8188;DHT22;4135;49.184;9.722;2022-10-31T18:33:58;20.60;69.10
8188;DHT22;4135;49.184;9.722;2022-10-31T18:36:27;20.50;68.30
8188;DHT22;4135;49.184;9.722;2022-10-31T18:38:57;20.60;68.30
8188;DHT22;4135;49.184;9.722;2022-10-31T18:41:26;20.60;68.30
8188;DHT22;4135;49.184;9.722;2022-10-31T18:43:57;20.60;68.30